RYR3KJ LPPR-LIME
Flight info
| Callsign | RYR3KJ |
|---|---|
| Flight time | N/A |
| Altitude | 34000 |
| Route | BELDU DCT ADORO L155 ZMR N976 DGO T429 TOPTU DCT TOU DCT GAI DCT MEN DCT NINUN UN871 LATAM UL55 EMMEF DCT LAPRI DCT MOGBO DCT TOP M135 DIXER |
| Aircraft | B738/M-SDGIJ1LRWY/SB1 |
Departure
| Time | N/A |
|---|---|
| Airport | Francisco de Sá Carneiro Airport (LPPR) |
Arrival
| Time | 2026-05-01 13:58 |
|---|---|
| Airport | Il Caravaggio International Airport (LIME) |
| Time | Latitude | Longitude | Altitude | Speed | Heading |
|---|---|---|---|---|---|
| 2026-05-01 12:40 | 42.77543 | -0.33820 | 34224 ft | 458 kts | 80° |
| 2026-05-01 12:40 | 42.78169 | -0.29603 | 34219 ft | 459 kts | 80° |
| 2026-05-01 12:41 | 42.79728 | -0.21132 | 34213 ft | 459 kts | 70° |
| 2026-05-01 12:41 | 42.81110 | -0.17210 | 34215 ft | 460 kts | 59° |
| 2026-05-01 12:41 | 42.82911 | -0.13622 | 34219 ft | 462 kts | 54° |
| 2026-05-01 12:42 | 42.86928 | -0.06784 | 34218 ft | 462 kts | 50° |
| 2026-05-01 12:42 | 42.91094 | -0.00077 | 34223 ft | 462 kts | 50° |
| 2026-05-01 12:43 | 42.95244 | 0.06659 | 34222 ft | 462 kts | 50° |
| 2026-05-01 12:43 | 42.99345 | 0.13431 | 34220 ft | 463 kts | 51° |
| 2026-05-01 12:44 | 43.03451 | 0.20289 | 34213 ft | 462 kts | 51° |
| 2026-05-01 12:45 | 43.11562 | 0.33939 | 34198 ft | 461 kts | 51° |
| 2026-05-01 12:45 | 43.15580 | 0.40719 | 34193 ft | 462 kts | 51° |
| 2026-05-01 12:46 | 43.19626 | 0.47562 | 34188 ft | 462 kts | 51° |
| 2026-05-01 12:46 | 43.23656 | 0.54399 | 34179 ft | 461 kts | 51° |
| 2026-05-01 12:47 | 43.27683 | 0.61252 | 34172 ft | 460 kts | 51° |
| 2026-05-01 12:47 | 43.31714 | 0.68132 | 34171 ft | 461 kts | 52° |
| 2026-05-01 12:48 | 43.35739 | 0.75010 | 34172 ft | 462 kts | 52° |
| 2026-05-01 12:48 | 43.39726 | 0.81842 | 34170 ft | 461 kts | 52° |
| 2026-05-01 12:49 | 43.43732 | 0.88724 | 34171 ft | 461 kts | 52° |
| 2026-05-01 12:49 | 43.47728 | 0.95598 | 34172 ft | 460 kts | 52° |
| 2026-05-01 12:50 | 43.51714 | 1.02480 | 34173 ft | 461 kts | 52° |
| 2026-05-01 12:50 | 43.55700 | 1.09378 | 34172 ft | 460 kts | 52° |
| 2026-05-01 12:51 | 43.59689 | 1.16291 | 34180 ft | 459 kts | 52° |
| 2026-05-01 12:52 | 43.65648 | 1.26661 | 34186 ft | 461 kts | 52° |
| 2026-05-01 12:52 | 43.71543 | 1.37147 | 34189 ft | 460 kts | 53° |
| 2026-05-01 12:53 | 43.77210 | 1.47837 | 34187 ft | 459 kts | 54° |
| 2026-05-01 12:54 | 43.80953 | 1.54948 | 34194 ft | 458 kts | 54° |
| 2026-05-01 12:54 | 43.86551 | 1.65564 | 34190 ft | 458 kts | 54° |
| 2026-05-01 12:55 | 43.92189 | 1.76236 | 34197 ft | 457 kts | 54° |
| 2026-05-01 12:56 | 43.95940 | 1.83363 | 34200 ft | 458 kts | 55° |
| 2026-05-01 12:56 | 43.99606 | 1.90579 | 34207 ft | 459 kts | 56° |
| 2026-05-01 12:57 | 44.03220 | 1.97882 | 34208 ft | 457 kts | 56° |
| 2026-05-01 12:57 | 44.08602 | 2.08794 | 34202 ft | 457 kts | 56° |
| 2026-05-01 12:58 | 44.12209 | 2.16099 | 34200 ft | 456 kts | 56° |
| 2026-05-01 12:59 | 44.17587 | 2.27014 | 34209 ft | 457 kts | 56° |
| 2026-05-01 12:59 | 44.22965 | 2.37960 | 34225 ft | 458 kts | 56° |
| 2026-05-01 13:00 | 44.28345 | 2.48948 | 34240 ft | 457 kts | 56° |
| 2026-05-01 13:01 | 44.33729 | 2.59981 | 34246 ft | 458 kts | 56° |
| 2026-05-01 13:02 | 44.39091 | 2.71013 | 34249 ft | 458 kts | 56° |
| 2026-05-01 13:07 | 44.76105 | 3.54304 | 34256 ft | 459 kts | 60° |
| 2026-05-01 13:08 | 44.79208 | 3.62155 | 34256 ft | 459 kts | 60° |
| 2026-05-01 13:08 | 44.82295 | 3.69965 | 34253 ft | 458 kts | 61° |
| 2026-05-01 13:09 | 44.85392 | 3.77813 | 34245 ft | 458 kts | 61° |
| 2026-05-01 13:09 | 44.88482 | 3.85664 | 34251 ft | 458 kts | 61° |
| 2026-05-01 13:10 | 44.91566 | 3.93522 | 34250 ft | 459 kts | 60° |
| 2026-05-01 13:10 | 44.94636 | 4.01366 | 34248 ft | 459 kts | 60° |
| 2026-05-01 13:11 | 44.97728 | 4.09290 | 34243 ft | 459 kts | 60° |
| 2026-05-01 13:11 | 45.00800 | 4.17182 | 34243 ft | 458 kts | 60° |
| 2026-05-01 13:12 | 45.03494 | 4.25311 | 34242 ft | 460 kts | 72° |
| 2026-05-01 13:12 | 45.04747 | 4.34131 | 34238 ft | 460 kts | 83° |
| 2026-05-01 13:13 | 45.05298 | 4.43140 | 34238 ft | 460 kts | 85° |
| 2026-05-01 13:13 | 45.05791 | 4.52155 | 34235 ft | 461 kts | 85° |
| 2026-05-01 13:14 | 45.06343 | 4.61096 | 34237 ft | 460 kts | 84° |
| 2026-05-01 13:14 | 45.06956 | 4.70089 | 34238 ft | 461 kts | 84° |
| 2026-05-01 13:15 | 45.07598 | 4.79096 | 34238 ft | 460 kts | 84° |
| 2026-05-01 13:15 | 45.08246 | 4.88066 | 34237 ft | 461 kts | 84° |
| 2026-05-01 13:16 | 45.08901 | 4.97123 | 34236 ft | 461 kts | 84° |
| 2026-05-01 13:16 | 45.09543 | 5.06094 | 34241 ft | 460 kts | 83° |
| 2026-05-01 13:17 | 45.10157 | 5.24176 | 34251 ft | 462 kts | 92° |
| 2026-05-01 13:18 | 45.09565 | 5.37714 | 34268 ft | 460 kts | 93° |
| 2026-05-01 13:18 | 45.09134 | 5.46703 | 34272 ft | 460 kts | 93° |
| 2026-05-01 13:19 | 45.08723 | 5.55717 | 34282 ft | 461 kts | 92° |
| 2026-05-01 13:20 | 45.08132 | 5.69247 | 34296 ft | 459 kts | 93° |
| 2026-05-01 13:20 | 45.07743 | 5.78195 | 34311 ft | 460 kts | 93° |
| 2026-05-01 13:21 | 45.07018 | 5.91758 | 34296 ft | 459 kts | 95° |
| 2026-05-01 13:21 | 45.06393 | 6.00721 | 34303 ft | 459 kts | 95° |
| 2026-05-01 13:22 | 45.05754 | 6.09682 | 34303 ft | 458 kts | 95° |
| 2026-05-01 13:22 | 45.05122 | 6.18607 | 34317 ft | 458 kts | 95° |
| 2026-05-01 13:23 | 45.04491 | 6.27548 | 34342 ft | 457 kts | 94° |
| 2026-05-01 13:23 | 45.03856 | 6.36519 | 34328 ft | 457 kts | 94° |
| 2026-05-01 13:24 | 45.03222 | 6.45396 | 34319 ft | 457 kts | 94° |
| 2026-05-01 13:25 | 45.02255 | 6.58782 | 34315 ft | 454 kts | 94° |
| 2026-05-01 13:25 | 45.01610 | 6.67596 | 34319 ft | 455 kts | 95° |
| 2026-05-01 13:26 | 45.00963 | 6.76489 | 34324 ft | 455 kts | 95° |
| 2026-05-01 13:26 | 45.00316 | 6.85359 | 34335 ft | 454 kts | 95° |
| 2026-05-01 13:27 | 44.99663 | 6.94195 | 34342 ft | 452 kts | 95° |
| 2026-05-01 13:27 | 44.98675 | 7.07397 | 34335 ft | 452 kts | 95° |
| 2026-05-01 13:28 | 44.97895 | 7.20549 | 34327 ft | 449 kts | 89° |
| 2026-05-01 13:29 | 44.98069 | 7.38143 | 34364 ft | 448 kts | 88° |
| 2026-05-01 13:31 | 44.95381 | 7.64316 | 34353 ft | 448 kts | 98° |
| 2026-05-01 13:32 | 44.92740 | 7.85924 | 34164 ft | 446 kts | 93° |
| 2026-05-01 13:33 | 44.92823 | 7.98696 | 33304 ft | 428 kts | 84° |
| 2026-05-01 13:33 | 44.93226 | 8.07011 | 32406 ft | 423 kts | 84° |
| 2026-05-01 13:34 | 44.93607 | 8.15226 | 31473 ft | 415 kts | 84° |
| 2026-05-01 13:34 | 44.93938 | 8.23253 | 30559 ft | 406 kts | 84° |
| 2026-05-01 13:35 | 44.94383 | 8.31101 | 29659 ft | 396 kts | 79° |
| 2026-05-01 13:35 | 44.94830 | 8.34926 | 29208 ft | 391 kts | 76° |
| 2026-05-01 13:35 | 44.95885 | 8.42351 | 28334 ft | 383 kts | 75° |
| 2026-05-01 13:36 | 44.96421 | 8.46004 | 27897 ft | 379 kts | 75° |
| 2026-05-01 13:36 | 44.96947 | 8.49652 | 27464 ft | 375 kts | 75° |
| 2026-05-01 13:36 | 44.97944 | 8.56755 | 26606 ft | 367 kts | 76° |
| 2026-05-01 13:37 | 44.98429 | 8.60289 | 26179 ft | 363 kts | 76° |
| 2026-05-01 13:37 | 44.98899 | 8.63746 | 25755 ft | 359 kts | 76° |
| 2026-05-01 13:37 | 44.99371 | 8.67240 | 25333 ft | 356 kts | 76° |
| 2026-05-01 13:37 | 44.99827 | 8.70632 | 24912 ft | 352 kts | 76° |
| 2026-05-01 13:38 | 45.00726 | 8.77350 | 24082 ft | 345 kts | 76° |
| 2026-05-01 13:38 | 45.01169 | 8.80677 | 23668 ft | 341 kts | 76° |
| 2026-05-01 13:38 | 45.01605 | 8.83958 | 23265 ft | 337 kts | 76° |
| 2026-05-01 13:39 | 45.02036 | 8.87203 | 22854 ft | 334 kts | 76° |
| 2026-05-01 13:39 | 45.02457 | 8.90385 | 22458 ft | 330 kts | 76° |
| 2026-05-01 13:39 | 45.02878 | 8.93576 | 22064 ft | 327 kts | 76° |
| 2026-05-01 13:39 | 45.03292 | 8.96727 | 21665 ft | 323 kts | 76° |
| 2026-05-01 13:40 | 45.03697 | 8.99804 | 21276 ft | 322 kts | 76° |
| 2026-05-01 13:40 | 45.04117 | 9.02979 | 20883 ft | 337 kts | 76° |
| 2026-05-01 13:40 | 45.04551 | 9.06261 | 20456 ft | 339 kts | 77° |
| 2026-05-01 13:40 | 45.04977 | 9.09529 | 20044 ft | 335 kts | 77° |
| 2026-05-01 13:41 | 45.05392 | 9.12747 | 19636 ft | 333 kts | 77° |
| 2026-05-01 13:41 | 45.05805 | 9.15968 | 19220 ft | 330 kts | 77° |
| 2026-05-01 13:41 | 45.06215 | 9.19158 | 18804 ft | 328 kts | 77° |
| 2026-05-01 13:41 | 45.06618 | 9.22294 | 18385 ft | 325 kts | 77° |
| 2026-05-01 13:42 | 45.07024 | 9.25444 | 17989 ft | 323 kts | 77° |
| 2026-05-01 13:42 | 45.07421 | 9.28529 | 17589 ft | 320 kts | 77° |
| 2026-05-01 13:42 | 45.07818 | 9.31599 | 17393 ft | 309 kts | 77° |
| 2026-05-01 13:42 | 45.08181 | 9.34562 | 17091 ft | 304 kts | 78° |
| 2026-05-01 13:43 | 45.08518 | 9.37504 | 16691 ft | 302 kts | 78° |
| 2026-05-01 13:43 | 45.08843 | 9.40420 | 16318 ft | 299 kts | 78° |
| 2026-05-01 13:43 | 45.09162 | 9.43284 | 15961 ft | 295 kts | 78° |
| 2026-05-01 13:43 | 45.09481 | 9.46131 | 15586 ft | 291 kts | 78° |
| 2026-05-01 13:44 | 45.09798 | 9.48950 | 15259 ft | 288 kts | 78° |
| 2026-05-01 13:44 | 45.10112 | 9.51737 | 14901 ft | 285 kts | 78° |
| 2026-05-01 13:44 | 45.10426 | 9.54529 | 14541 ft | 282 kts | 78° |
| 2026-05-01 13:44 | 45.10733 | 9.57259 | 14181 ft | 279 kts | 78° |
| 2026-05-01 13:45 | 45.11032 | 9.59929 | 13855 ft | 275 kts | 78° |
| 2026-05-01 13:45 | 45.11328 | 9.62582 | 13521 ft | 273 kts | 78° |
| 2026-05-01 13:45 | 45.11622 | 9.65219 | 13190 ft | 270 kts | 79° |
| 2026-05-01 13:45 | 45.11917 | 9.67867 | 12869 ft | 267 kts | 79° |
| 2026-05-01 13:46 | 45.12267 | 9.70392 | 12711 ft | 257 kts | 71° |
| 2026-05-01 13:46 | 45.13019 | 9.72578 | 12574 ft | 245 kts | 50° |
| 2026-05-01 13:46 | 45.14302 | 9.74116 | 12307 ft | 242 kts | 30° |
| 2026-05-01 13:46 | 45.15837 | 9.75114 | 11996 ft | 241 kts | 24° |
| 2026-05-01 13:47 | 45.17381 | 9.75995 | 11708 ft | 239 kts | 24° |
| 2026-05-01 13:47 | 45.18923 | 9.76881 | 11448 ft | 242 kts | 24° |
| 2026-05-01 13:47 | 45.20535 | 9.77817 | 11130 ft | 255 kts | 24° |
| 2026-05-01 13:47 | 45.22184 | 9.78772 | 10756 ft | 257 kts | 24° |
| 2026-05-01 13:48 | 45.23840 | 9.79721 | 10434 ft | 255 kts | 24° |
| 2026-05-01 13:48 | 45.25483 | 9.80662 | 10042 ft | 256 kts | 23° |
| 2026-05-01 13:48 | 45.27143 | 9.81615 | 9707 ft | 255 kts | 23° |
| 2026-05-01 13:48 | 45.28759 | 9.82601 | 9401 ft | 252 kts | 28° |
| 2026-05-01 13:49 | 45.30177 | 9.84048 | 8993 ft | 252 kts | 44° |
| 2026-05-01 13:49 | 45.31529 | 9.85575 | 8641 ft | 252 kts | 30° |
| 2026-05-01 13:49 | 45.33120 | 9.86624 | 8329 ft | 250 kts | 22° |
| 2026-05-01 13:49 | 45.34757 | 9.87479 | 8073 ft | 246 kts | 20° |
| 2026-05-01 13:50 | 45.36359 | 9.88242 | 7817 ft | 243 kts | 19° |
| 2026-05-01 13:50 | 45.37958 | 9.89008 | 7570 ft | 240 kts | 20° |
| 2026-05-01 13:50 | 45.39543 | 9.89787 | 7327 ft | 239 kts | 20° |
| 2026-05-01 13:50 | 45.41116 | 9.90573 | 7079 ft | 239 kts | 20° |
| 2026-05-01 13:51 | 45.42700 | 9.91369 | 6832 ft | 239 kts | 20° |
| 2026-05-01 13:51 | 45.44267 | 9.92156 | 6584 ft | 239 kts | 20° |
| 2026-05-01 13:51 | 45.45837 | 9.92945 | 6342 ft | 239 kts | 20° |
| 2026-05-01 13:51 | 45.47396 | 9.93728 | 6085 ft | 237 kts | 20° |
| 2026-05-01 13:52 | 45.48949 | 9.94508 | 5842 ft | 237 kts | 20° |
| 2026-05-01 13:52 | 45.50509 | 9.95292 | 5592 ft | 235 kts | 20° |
| 2026-05-01 13:52 | 45.52041 | 9.96062 | 5349 ft | 235 kts | 20° |
| 2026-05-01 13:52 | 45.53592 | 9.96843 | 5102 ft | 236 kts | 20° |
| 2026-05-01 13:53 | 45.55157 | 9.97631 | 4854 ft | 234 kts | 20° |
| 2026-05-01 13:53 | 45.58207 | 9.99148 | 4403 ft | 228 kts | 16° |
| 2026-05-01 13:53 | 45.59755 | 9.99511 | 4408 ft | 228 kts | 355° |
| 2026-05-01 13:54 | 45.61155 | 9.98739 | 4407 ft | 210 kts | 317° |
| 2026-05-01 13:54 | 45.61932 | 9.97058 | 4168 ft | 205 kts | 286° |
| 2026-05-01 13:54 | 45.62228 | 9.95062 | 3887 ft | 203 kts | 281° |
| 2026-05-01 13:54 | 45.62539 | 9.93149 | 3714 ft | 197 kts | 284° |
| 2026-05-01 13:55 | 45.62920 | 9.91217 | 3445 ft | 201 kts | 285° |
| 2026-05-01 13:55 | 45.63287 | 9.89322 | 3167 ft | 198 kts | 284° |
| 2026-05-01 13:55 | 45.63638 | 9.87446 | 2924 ft | 193 kts | 284° |
| 2026-05-01 13:55 | 45.63985 | 9.85601 | 2638 ft | 190 kts | 285° |
| 2026-05-01 13:56 | 45.64318 | 9.83843 | 2381 ft | 178 kts | 285° |
| 2026-05-01 13:56 | 45.64623 | 9.82196 | 2194 ft | 162 kts | 284° |
| 2026-05-01 13:56 | 45.64917 | 9.80657 | 1946 ft | 159 kts | 284° |
| 2026-05-01 13:56 | 45.65205 | 9.79132 | 1747 ft | 158 kts | 283° |
| 2026-05-01 13:57 | 45.65480 | 9.77614 | 1514 ft | 158 kts | 283° |
| 2026-05-01 13:57 | 45.65782 | 9.76108 | 1305 ft | 156 kts | 283° |
| 2026-05-01 13:57 | 45.66050 | 9.74609 | 1094 ft | 155 kts | 283° |
| 2026-05-01 13:57 | 45.66332 | 9.73137 | 911 ft | 154 kts | 284° |
| 2026-05-01 13:58 | 45.66607 | 9.71665 | 768 ft | 148 kts | 284° |
| 2026-05-01 13:58 | 45.66813 | 9.70541 | 784 ft | 83 kts | 285° |
| 2026-05-01 13:58 | 45.66912 | 9.69983 | 785 ft | 43 kts | 288° |
| 2026-05-01 13:58 | 45.66977 | 9.69635 | 787 ft | 33 kts | 285° |
| 2026-05-01 13:59 | 45.67005 | 9.69486 | 788 ft | 8 kts | 287° |
| 2026-05-01 13:59 | 45.67033 | 9.69353 | 789 ft | 22 kts | 287° |
| 2026-05-01 13:59 | 45.67065 | 9.69112 | 785 ft | 25 kts | 258° |
| 2026-05-01 13:59 | 45.66972 | 9.68987 | 781 ft | 19 kts | 189° |
| 2026-05-01 14:00 | 45.66905 | 9.69097 | 782 ft | 15 kts | 96° |
| 2026-05-01 14:00 | 45.66886 | 9.69241 | 783 ft | 14 kts | 104° |
| 2026-05-01 14:00 | 45.66860 | 9.69373 | 783 ft | 13 kts | 105° |
| 2026-05-01 14:00 | 45.66837 | 9.69502 | 782 ft | 13 kts | 104° |
| 2026-05-01 14:01 | 45.66813 | 9.69629 | 781 ft | 13 kts | 105° |
| 2026-05-01 14:01 | 45.66789 | 9.69754 | 781 ft | 12 kts | 106° |
| 2026-05-01 14:01 | 45.66760 | 9.69914 | 780 ft | 22 kts | 105° |
| 2026-05-01 14:01 | 45.66724 | 9.70117 | 779 ft | 14 kts | 105° |
| 2026-05-01 14:02 | 45.66700 | 9.70145 | 779 ft | 4 kts | 184° |
| 2026-05-01 14:02 | 45.66665 | 9.70133 | 778 ft | 5 kts | 195° |
| 2026-05-01 14:02 | 45.66641 | 9.70123 | 778 ft | 2 kts | 195° |
| 2026-05-01 14:02 | 45.66634 | 9.70121 | 778 ft | 0 kts | 195° |